Time;durP1;ratioP1;P1;durP2;ratioP2;P2;SDS_P1;SDS_P2;PMS_P1;PMS_P2;Temp;Humidity;BMP_temperature;BMP_pressure;BME280_temperature;BME280_humidity;BME280_pressure;Samples;Min_cycle;Max_cycle;Signal;HPM_P1;HPM_P2
2023/11/14 00:01:44;;;;;;;84.83;49.23;;;;;;;5.73;89.89;100289.41;124523;1105;102856;-77
2023/11/14 00:04:16;;;;;;;86.47;50.90;;;;;;;5.75;89.98;100288.69;124450;1105;104182;-77
2023/11/14 00:06:47;;;;;;;84.80;51.90;;;;;;;5.77;90.24;100293.98;124460;1105;104217;-77
2023/11/14 00:09:19;;;;;;;84.90;50.20;;;;;;;5.78;90.09;100289.66;124396;1105;101893;-77
2023/11/14 00:11:50;;;;;;;88.87;50.80;;;;;;;5.77;90.10;100291.37;124270;1105;104360;-77
2023/11/14 00:14:22;;;;;;;81.83;47.53;;;;;;;5.77;90.10;100293.98;124506;1105;102854;-78
2023/11/14 00:16:53;;;;;;;84.10;47.73;;;;;;;5.79;90.12;100283.64;124484;1105;104534;-77
2023/11/14 00:19:25;;;;;;;76.97;45.07;;;;;;;5.78;90.22;100281.84;124520;1105;101852;-78
2023/11/14 00:21:58;;;;;;;82.77;47.13;;;;;;;5.78;90.42;100271.42;124548;1105;101929;-78
2023/11/14 00:24:29;;;;;;;77.67;46.87;;;;;;;5.77;90.12;100273.14;124484;1105;104275;-78
2023/11/14 00:27:01;;;;;;;80.33;43.90;;;;;;;5.78;90.17;100274.03;124481;1105;104221;-78
2023/11/14 00:29:33;;;;;;;77.37;45.13;;;;;;;5.76;90.41;100274.87;124283;1107;104343;-78
2023/11/14 00:32:06;;;;;;;87.17;47.20;;;;;;;5.74;90.24;100266.06;124493;1105;104067;-77
2023/11/14 00:34:38;;;;;;;77.37;44.23;;;;;;;5.73;90.37;100276.39;124447;1105;104261;-78
2023/11/14 00:37:13;;;;;;;77.23;44.47;;;;;;;5.72;90.68;100267.70;124119;1105;101865;-77
2023/11/14 00:39:45;;;;;;;79.77;44.77;;;;;;;5.70;90.32;100261.53;124477;1105;104441;-77
2023/11/14 00:42:17;;;;;;;73.23;43.27;;;;;;;5.68;90.52;100265.74;124491;1105;101996;-78
2023/11/14 00:44:49;;;;;;;75.77;43.43;;;;;;;5.68;90.38;100259.66;124125;1105;101924;-77
2023/11/14 00:47:20;;;;;;;75.47;43.43;;;;;;;5.65;90.61;100252.57;124431;1105;101849;-77
2023/11/14 00:49:52;;;;;;;76.17;44.17;;;;;;;5.61;90.72;100250.64;124378;1106;102652;-77
2023/11/14 00:52:23;;;;;;;77.67;44.20;;;;;;;5.60;90.27;100245.36;124139;1105;104339;-77
2023/11/14 00:54:55;;;;;;;82.23;45.63;;;;;;;5.53;90.09;100247.64;124111;1105;102400;-77
2023/11/14 00:57:26;;;;;;;74.67;43.80;;;;;;;5.50;90.69;100243.97;124506;1105;104255;-77
2023/11/14 00:59:59;;;;;;;81.53;45.10;;;;;;;5.45;90.70;100250.66;124094;1105;104179;-77
2023/11/14 01:02:30;;;;;;;82.90;45.13;;;;;;;5.42;90.64;100260.91;124489;1105;104210;-77
2023/11/14 01:05:01;;;;;;;80.23;44.73;;;;;;;5.37;90.66;100261.55;124425;1105;104275;-77
2023/11/14 01:07:33;;;;;;;82.17;45.23;;;;;;;5.34;90.65;100255.30;124155;1105;102132;-77
2023/11/14 01:10:06;;;;;;;79.53;44.60;;;;;;;5.31;90.11;100255.13;124457;1105;104255;-77
2023/11/14 01:12:38;;;;;;;79.22;46.10;;;;;;;5.27;90.85;100255.80;124341;1105;102238;-78
2023/11/14 01:15:12;;;;;;;77.80;45.00;;;;;;;5.24;90.81;100253.04;124444;1105;102053;-77
2023/11/14 01:17:44;;;;;;;78.07;46.58;;;;;;;5.22;91.14;100253.84;124289;1105;104350;-77
2023/11/14 01:20:16;;;;;;;81.13;45.17;;;;;;;5.19;91.07;100256.28;124280;1105;102021;-77
2023/11/14 01:22:48;;;;;;;79.90;45.03;;;;;;;5.17;91.14;100243.98;124331;1106;101904;-77
2023/11/14 01:25:19;;;;;;;81.93;45.23;;;;;;;5.14;91.02;100236.94;124362;1105;104226;-77
2023/11/14 01:27:52;;;;;;;77.60;44.00;;;;;;;5.11;91.15;100231.58;124646;1105;102010;-77
2023/11/14 01:30:24;;;;;;;77.60;44.17;;;;;;;5.09;90.88;100229.69;124431;1105;104188;-77
2023/11/14 01:32:56;;;;;;;80.80;44.67;;;;;;;5.04;90.73;100219.93;124049;1106;107206;-77
2023/11/14 01:35:27;;;;;;;78.03;45.20;;;;;;;5.03;90.62;100218.16;124307;1106;104252;-79
2023/11/14 01:37:59;;;;;;;81.13;43.87;;;;;;;5.00;91.10;100217.08;124532;1105;101949;-78
2023/11/14 01:40:30;;;;;;;73.87;41.47;;;;;;;4.98;91.01;100213.52;124598;1105;104198;-79
2023/11/14 01:43:06;;;;;;;68.47;38.57;;;;;;;4.96;91.19;100205.63;124551;1105;117461;-79
2023/11/14 01:45:37;;;;;;;65.93;37.73;;;;;;;4.94;90.94;100204.67;124571;1105;104221;-78
2023/11/14 01:48:09;;;;;;;71.27;38.60;;;;;;;4.93;90.91;100192.47;124619;1105;102161;-79
2023/11/14 01:50:41;;;;;;;61.50;35.30;;;;;;;4.93;91.26;100194.19;124506;1105;104187;-79
2023/11/14 01:53:12;;;;;;;63.83;33.53;;;;;;;4.89;91.09;100192.22;124579;1105;102198;-78
2023/11/14 01:55:44;;;;;;;62.40;33.27;;;;;;;4.88;91.00;100199.14;124593;1105;103019;-79
2023/11/14 01:58:16;;;;;;;59.97;32.13;;;;;;;4.86;91.10;100201.66;124454;1105;104287;-79
2023/11/14 02:00:47;;;;;;;55.83;31.90;;;;;;;4.85;91.15;100196.37;124538;1105;104271;-79
2023/11/14 02:03:19;;;;;;;56.63;31.63;;;;;;;4.83;90.87;100191.09;124357;1105;101844;-78
2023/11/14 02:05:51;;;;;;;57.47;31.57;;;;;;;4.82;91.09;100193.61;124497;1106;101942;-79
2023/11/14 02:08:23;;;;;;;54.67;28.40;;;;;;;4.82;91.13;100193.61;124619;1105;101968;-78
2023/11/14 02:10:56;;;;;;;50.83;27.67;;;;;;;4.80;91.28;100184.81;124628;1105;104186;-78
2023/11/14 02:13:27;;;;;;;54.10;29.90;;;;;;;4.77;91.28;100188.16;124540;1105;104191;-78
2023/11/14 02:15:59;;;;;;;51.87;27.80;;;;;;;4.76;91.06;100183.77;124670;1105;102977;-79
2023/11/14 02:18:32;;;;;;;52.10;27.23;;;;;;;4.76;91.26;100182.87;124650;1105;102190;-76
2023/11/14 02:21:04;;;;;;;46.03;27.00;;;;;;;4.73;90.86;100183.59;124529;1105;101973;-79
2023/11/14 02:23:41;;;;;;;49.80;25.70;;;;;;;4.70;91.11;100175.63;124514;1106;102383;-79
2023/11/14 02:26:12;;;;;;;45.40;24.87;;;;;;;4.67;91.12;100165.98;124588;1105;102012;-78
2023/11/14 02:28:43;;;;;;;47.67;25.83;;;;;;;4.61;91.22;100150.06;124621;1105;104306;-78
2023/11/14 02:31:17;;;;;;;44.57;24.90;;;;;;;4.58;90.87;100147.30;124538;1105;104216;-78
2023/11/14 02:33:49;;;;;;;42.17;23.53;;;;;;;4.54;90.52;100150.53;124502;1105;102686;-78
2023/11/14 02:36:20;;;;;;;44.67;24.33;;;;;;;4.51;91.10;100160.76;124541;1105;102008;-78
2023/11/14 02:38:52;;;;;;;41.90;23.13;;;;;;;4.48;90.91;100156.27;124618;1105;101948;-79
2023/11/14 02:41:23;;;;;;;41.90;22.83;;;;;;;4.47;91.19;100151.91;124588;1105;104294;-79
2023/11/14 02:43:57;;;;;;;41.77;22.60;;;;;;;4.42;91.04;100145.55;124488;1105;102446;-78
2023/11/14 02:46:29;;;;;;;41.60;22.30;;;;;;;4.40;90.78;100141.98;124464;1105;104251;-78
2023/11/14 02:49:20;;;;;;;41.27;22.97;;;;;;;4.39;90.93;100144.49;124361;1105;104089;-78
2023/11/14 02:51:51;;;;;;;38.53;22.03;;;;;;;4.38;91.21;100145.30;124636;1105;104265;-78
2023/11/14 02:54:23;;;;;;;36.87;21.53;;;;;;;4.37;91.42;100146.13;124536;1105;102504;-79
2023/11/14 02:56:54;;;;;;;39.43;21.57;;;;;;;4.37;91.41;100146.13;124610;1105;102036;-78
2023/11/14 02:59:26;;;;;;;37.17;20.47;;;;;;;4.36;91.27;100144.33;124656;1105;104347;-78
2023/11/14 03:01:57;;;;;;;38.40;21.33;;;;;;;4.36;91.07;100140.02;124567;1105;102144;-78
2023/11/14 03:04:29;;;;;;;38.30;20.80;;;;;;;4.36;91.07;100144.33;124522;1104;101919;-79
2023/11/14 03:07:02;;;;;;;35.90;19.77;;;;;;;4.35;91.33;100142.53;124542;1105;103739;-79
2023/11/14 03:09:33;;;;;;;37.60;19.70;;;;;;;4.31;91.03;100137.16;124683;1105;104175;-78
2023/11/14 03:12:06;;;;;;;36.53;19.17;;;;;;;4.31;91.09;100142.36;124586;1106;104179;-78
2023/11/14 03:14:38;;;;;;;38.03;19.97;;;;;;;4.30;91.34;100131.88;124553;1105;104692;-79
2023/11/14 03:17:09;;;;;;;34.30;19.53;;;;;;;4.29;91.50;100124.92;124574;1104;104185;-79
2023/11/14 03:19:44;;;;;;;36.10;19.90;;;;;;;4.27;91.04;100126.52;124426;1105;101894;-78
2023/11/14 03:22:15;;;;;;;32.47;17.27;;;;;;;4.26;91.09;100127.35;124662;1105;104206;-78
2023/11/14 03:24:47;;;;;;;35.80;19.30;;;;;;;4.25;91.39;100110.86;124581;1105;102010;-78
2023/11/14 03:27:18;;;;;;;35.70;19.77;;;;;;;4.25;91.20;100116.05;124425;1105;101967;-79
2023/11/14 03:29:50;;;;;;;38.47;20.23;;;;;;;4.25;91.61;100116.05;124513;1105;104274;-78
2023/11/14 03:32:22;;;;;;;34.17;19.20;;;;;;;4.23;91.21;100117.68;124522;1105;102195;-78
2023/11/14 03:34:54;;;;;;;38.60;20.87;;;;;;;4.23;91.25;100122.88;124614;1105;102089;-78
2023/11/14 03:37:25;;;;;;;36.37;20.40;;;;;;;4.24;91.80;100119.48;124519;1105;104217;-78
2023/11/14 03:39:57;;;;;;;37.67;20.43;;;;;;;4.25;91.41;100117.77;124545;1105;104182;-79
2023/11/14 03:42:28;;;;;;;36.60;19.83;;;;;;;4.22;91.71;100104.61;124574;1105;104258;-78
2023/11/14 03:44:59;;;;;;;38.47;21.00;;;;;;;4.18;91.10;100103.56;124489;1105;104255;-77
2023/11/14 03:47:31;;;;;;;38.70;20.43;;;;;;;4.16;91.32;100104.27;124589;1105;104261;-77
2023/11/14 03:50:05;;;;;;;38.07;19.43;;;;;;;4.17;91.16;100106.95;124549;1104;102297;-77
2023/11/14 03:52:37;;;;;;;42.00;20.60;;;;;;;4.17;92.14;100103.47;124460;1105;104226;-77
2023/11/14 03:55:09;;;;;;;36.53;19.37;;;;;;;4.17;91.47;100103.47;124538;1105;102538;-77
2023/11/14 03:57:41;;;;;;;41.20;20.30;;;;;;;4.14;91.78;100105.10;124443;1103;102626;-78
2023/11/14 04:00:14;;;;;;;37.27;20.73;;;;;;;4.12;91.66;100113.61;124487;1105;101948;-77
2023/11/14 04:02:46;;;;;;;36.50;19.87;;;;;;;4.10;91.43;100126.50;124586;1105;104271;-79
2023/11/14 04:05:18;;;;;;;37.20;19.83;;;;;;;4.10;91.87;100121.31;124614;1105;104376;-78
2023/11/14 04:07:49;;;;;;;34.57;18.67;;;;;;;4.10;92.02;100110.04;124631;1105;104195;-79
2023/11/14 04:10:21;;;;;;;34.60;18.77;;;;;;;4.09;91.59;100097.86;124526;1105;101936;-79
2023/11/14 04:12:53;;;;;;;30.77;17.00;;;;;;;4.11;92.09;100115.32;124566;1105;102430;-79
2023/11/14 04:15:24;;;;;;;33.57;17.37;;;;;;;4.12;91.47;100105.81;124514;1105;104227;-79
2023/11/14 04:17:56;;;;;;;37.17;18.10;;;;;;;4.15;92.18;100108.58;124541;1105;104271;-78
2023/11/14 04:20:27;;;;;;;32.17;16.87;;;;;;;4.17;92.20;100090.48;124537;1105;104211;-79
2023/11/14 04:22:59;;;;;;;31.00;16.20;;;;;;;4.15;91.40;100077.42;124560;1105;102444;-79
2023/11/14 04:25:30;;;;;;;36.73;16.67;;;;;;;4.16;91.71;100083.50;124521;1105;104258;-78
2023/11/14 04:28:02;;;;;;;28.90;15.70;;;;;;;4.17;91.89;100088.77;124536;1105;102351;-79
2023/11/14 04:30:33;;;;;;;30.43;15.80;;;;;;;4.18;92.43;100076.70;124591;1105;101978;-79
2023/11/14 04:33:05;;;;;;;26.27;13.20;;;;;;;4.17;92.11;100074.91;124458;1105;104275;-80
2023/11/14 04:35:36;;;;;;;23.47;12.93;;;;;;;4.16;92.14;100071.42;124493;1105;104262;-80
2023/11/14 04:38:07;;;;;;;25.43;13.50;;;;;;;4.18;92.31;100072.39;124509;1105;101871;-79
2023/11/14 04:40:39;;;;;;;29.73;14.40;;;;;;;4.18;92.40;100082.78;124431;1105;103154;-78
2023/11/14 04:43:10;;;;;;;31.70;15.47;;;;;;;4.19;92.35;100084.58;124467;1105;102545;-79
2023/11/14 04:45:42;;;;;;;32.70;16.40;;;;;;;4.18;91.87;100089.69;124411;1105;104274;-79
2023/11/14 04:48:15;;;;;;;29.17;14.87;;;;;;;4.18;91.52;100093.17;124382;1105;104208;-79
2023/11/14 04:50:46;;;;;;;31.73;15.03;;;;;;;4.15;91.57;100093.00;124461;1105;104252;-79
2023/11/14 04:53:18;;;;;;;29.57;13.27;;;;;;;4.13;91.78;100081.64;124497;1106;102127;-80
2023/11/14 04:55:50;;;;;;;30.67;14.87;;;;;;;4.16;92.08;100073.11;124472;1105;104319;-80
2023/11/14 04:58:22;;;;;;;27.50;12.63;;;;;;;4.15;92.21;100072.22;124324;1105;104217;-78
2023/11/14 05:00:53;;;;;;;29.00;14.30;;;;;;;4.16;92.30;100074.02;124340;1105;104287;-78
2023/11/14 05:03:25;;;;;;;26.00;12.80;;;;;;;4.16;92.04;100074.02;124369;1105;102511;-78
2023/11/14 05:05:56;;;;;;;25.10;12.30;;;;;;;4.18;92.15;100068.91;124322;1105;104200;-78
2023/11/14 05:08:28;;;;;;;24.87;12.60;;;;;;;4.18;92.20;100074.98;124342;1105;104179;-79
2023/11/14 05:10:59;;;;;;;24.57;12.47;;;;;;;4.19;91.96;100074.19;124444;1104;104237;-79
2023/11/14 05:13:31;;;;;;;28.50;13.77;;;;;;;4.23;92.07;100073.53;124397;1105;101902;-78
2023/11/14 05:16:03;;;;;;;27.00;14.10;;;;;;;4.23;91.87;100065.73;124423;1105;104195;-79
2023/11/14 05:18:35;;;;;;;31.83;14.47;;;;;;;4.21;91.81;100062.17;124494;1105;104339;-79
2023/11/14 05:21:07;;;;;;;32.57;16.80;;;;;;;4.21;92.15;100069.08;124452;1105;104303;-79
2023/11/14 05:23:38;;;;;;;33.83;18.37;;;;;;;4.15;91.93;100067.03;124437;1105;103194;-79
2023/11/14 05:26:09;;;;;;;34.33;17.10;;;;;;;4.15;91.68;100059.24;124279;1105;102428;-79
2023/11/14 05:28:41;;;;;;;26.50;14.27;;;;;;;4.18;92.41;100051.62;124372;1105;101891;-78
2023/11/14 05:31:14;;;;;;;23.70;12.10;;;;;;;4.20;92.02;100065.56;124349;1105;102275;-78
2023/11/14 05:33:46;;;;;;;23.30;11.20;;;;;;;4.23;91.73;100068.33;124352;1105;104096;-79
2023/11/14 05:36:17;;;;;;;24.43;11.40;;;;;;;4.28;92.28;100053.87;124374;1105;104229;-80
2023/11/14 05:38:49;;;;;;;22.37;10.70;;;;;;;4.34;92.30;100052.44;124579;1105;102103;-78
2023/11/14 05:41:20;;;;;;;23.47;11.13;;;;;;;4.37;91.90;100050.02;124587;1105;104233;-81
2023/11/14 05:43:51;;;;;;;24.00;11.43;;;;;;;4.43;92.05;100056.41;124651;1105;102096;-80
2023/11/14 05:46:23;;;;;;;23.17;10.33;;;;;;;4.49;92.45;100059.34;124657;1105;103539;-80
2023/11/14 05:48:55;;;;;;;21.70;9.80;;;;;;;4.55;92.53;100060.47;124549;1103;103363;-80
2023/11/14 05:51:27;;;;;;;22.63;9.90;;;;;;;4.59;91.93;100059.83;124564;1105;104185;-78
2023/11/14 05:53:59;;;;;;;21.53;10.30;;;;;;;4.62;91.75;100070.38;124511;1105;104211;-79
2023/11/14 05:56:31;;;;;;;22.45;10.40;;;;;;;4.61;92.00;100072.09;124665;1105;102222;-81
2023/11/14 05:59:03;;;;;;;21.45;9.75;;;;;;;4.62;91.69;100066.06;124617;1105;104355;-80
2023/11/14 06:01:35;;;;;;;22.87;10.53;;;;;;;4.63;92.06;100073.06;124668;1105;102437;-79
2023/11/14 06:04:07;;;;;;;24.60;10.67;;;;;;;4.64;91.73;100059.27;124715;1105;102492;-81
2023/11/14 06:06:39;;;;;;;23.93;10.90;;;;;;;4.66;92.33;100059.34;124745;1105;104363;-81
2023/11/14 06:09:11;;;;;;;23.43;10.40;;;;;;;4.71;91.76;100043.99;124541;1105;102920;-80
2023/11/14 06:11:42;;;;;;;25.30;10.43;;;;;;;4.78;92.40;100043.47;124577;1105;102066;-78
2023/11/14 06:14:14;;;;;;;23.93;11.37;;;;;;;4.85;92.38;100041.27;124574;1105;104057;-82
2023/11/14 06:16:45;;;;;;;24.70;11.03;;;;;;;4.95;92.23;100040.02;124629;1105;102337;-79
2023/11/14 06:19:17;;;;;;;23.37;10.63;;;;;;;5.04;91.89;100031.80;124506;1105;102891;-80
2023/11/14 06:21:48;;;;;;;24.33;12.10;;;;;;;5.14;92.75;100039.27;124584;1105;104309;-79
2023/11/14 06:24:20;;;;;;;24.20;11.03;;;;;;;5.26;92.17;100036.36;124607;1105;104195;-81
2023/11/14 06:26:52;;;;;;;22.27;10.33;;;;;;;5.32;92.20;100027.97;124485;1106;103010;-81
2023/11/14 06:29:24;;;;;;;25.00;11.10;;;;;;;5.39;92.27;100020.55;124667;1105;103486;-78
2023/11/14 06:31:56;;;;;;;21.83;10.93;;;;;;;5.44;92.37;100015.56;124713;1105;104220;-80
2023/11/14 06:34:27;;;;;;;24.13;11.20;;;;;;;5.52;92.10;100003.80;124748;1105;102469;-78
2023/11/14 06:37:00;;;;;;;23.83;11.13;;;;;;;5.65;92.25;100014.80;124526;1106;102188;-79
2023/11/14 06:39:32;;;;;;;25.90;11.40;;;;;;;5.76;92.41;100024.92;124598;1103;104095;-82
2023/11/14 06:42:04;;;;;;;22.87;11.10;;;;;;;5.88;92.89;100013.29;124611;1109;104299;-82
2023/11/14 06:44:43;;;;;;;22.47;10.57;;;;;;;5.92;92.07;100007.38;125492;1105;102516;-80
2023/11/14 06:47:16;;;;;;;27.40;11.93;;;;;;;5.97;92.26;100008.55;125140;1104;103085;-81
2023/11/14 06:49:50;;;;;;;23.23;10.67;;;;;;;6.04;92.12;99996.68;124531;1105;104719;-81
2023/11/14 06:52:22;;;;;;;22.17;11.23;;;;;;;6.10;91.68;100005.66;124633;1106;104090;-80
2023/11/14 06:54:53;;;;;;;25.53;11.60;;;;;;;6.29;92.56;100006.49;124683;1106;103676;-81
2023/11/14 06:57:26;;;;;;;22.33;11.60;;;;;;;6.37;91.98;100004.23;124829;1105;102406;-81
2023/11/14 06:59:59;;;;;;;24.43;11.90;;;;;;;6.40;91.90;99991.34;124753;1105;102634;-80
2023/11/14 07:02:30;;;;;;;28.50;12.47;;;;;;;6.38;91.28;99970.42;125244;1105;104232;-80
2023/11/14 07:05:03;;;;;;;27.57;11.73;;;;;;;6.39;92.01;99976.52;124629;1105;102888;-80
2023/11/14 07:07:35;;;;;;;30.30;12.50;;;;;;;6.44;91.46;99982.84;124600;1105;104282;-79
2023/11/14 07:10:11;;;;;;;28.30;12.27;;;;;;;6.56;91.94;99977.25;124390;1109;104240;-79
2023/11/14 07:12:45;;;;;;;32.80;12.10;;;;;;;6.61;91.36;99974.03;126006;1104;102042;-80
2023/11/14 07:15:20;;;;;;;27.67;12.47;;;;;;;6.66;91.64;99963.80;125658;1105;102488;-81
2023/11/14 07:17:52;;;;;;;24.45;12.60;;;;;;;6.71;91.73;99959.66;124706;1105;104130;-79
2023/11/14 07:20:32;;;;;;;27.97;12.43;;;;;;;6.77;91.67;99953.83;124733;1105;104217;-80
2023/11/14 07:23:11;;;;;;;26.70;12.37;;;;;;;6.81;91.01;99948.81;124685;1105;104261;-81
2023/11/14 07:25:44;;;;;;;28.47;12.77;;;;;;;6.84;91.17;99938.50;124870;1106;102782;-81
2023/11/14 07:28:17;;;;;;;27.07;12.27;;;;;;;6.90;91.27;99936.97;124676;1105;102317;-80
2023/11/14 07:30:50;;;;;;;25.40;11.93;;;;;;;7.03;91.02;99939.27;125519;1105;102166;-81
2023/11/14 07:33:26;;;;;;;31.70;12.70;;;;;;;7.15;91.47;99929.33;125407;1105;103063;-80
2023/11/14 07:35:58;;;;;;;29.23;12.70;;;;;;;7.23;90.83;99920.89;125290;1105;104159;-78
2023/11/14 07:38:30;;;;;;;24.30;11.87;;;;;;;7.23;91.50;99918.29;124563;1105;104232;-80
2023/11/14 07:41:01;;;;;;;26.93;10.43;;;;;;;7.21;91.06;99928.66;124689;1106;103446;-81
2023/11/14 07:43:36;;;;;;;24.82;10.58;;;;;;;7.21;90.72;99946.94;125382;1105;103310;-81
2023/11/14 07:46:14;;;;;;;22.13;10.60;;;;;;;7.26;91.07;99949.73;124807;1105;101923;-81
2023/11/14 07:48:49;;;;;;;21.67;10.23;;;;;;;7.31;90.63;99959.53;124739;1105;103252;-78
2023/11/14 07:51:23;;;;;;;21.73;8.93;;;;;;;7.40;90.82;99955.50;124797;1106;103552;-78
2023/11/14 07:53:55;;;;;;;21.30;8.37;;;;;;;7.53;90.57;99942.99;125345;1105;102193;-80
2023/11/14 07:56:33;;;;;;;20.20;9.43;;;;;;;7.65;90.59;99939.98;125466;1105;104251;-79
2023/11/14 07:59:05;;;;;;;22.33;9.83;;;;;;;7.74;90.13;99934.20;125469;1105;102602;-79
2023/11/14 08:01:42;;;;;;;20.27;9.13;;;;;;;7.79;90.65;99913.47;125409;1105;102457;-85
2023/11/14 08:04:17;;;;;;;21.07;9.77;;;;;;;7.86;90.61;99921.59;125389;1105;102346;-80
2023/11/14 08:06:52;;;;;;;18.27;8.38;;;;;;;7.96;90.70;99919.33;125290;1105;102188;-82
2023/11/14 08:09:27;;;;;;;18.87;7.80;;;;;;;8.02;90.14;99912.59;125068;1105;102892;-78
2023/11/14 08:12:04;;;;;;;19.10;8.13;;;;;;;8.12;89.67;99903.39;124746;1104;103411;-80
2023/11/14 08:14:37;;;;;;;21.05;7.95;;;;;;;8.19;89.90;99907.98;124796;1106;104176;-82
2023/11/14 08:17:12;;;;;;;19.27;8.43;;;;;;;8.25;89.45;99900.36;125341;1106;104127;-79
2023/11/14 08:19:49;;;;;;;19.50;8.17;;;;;;;8.33;89.39;99899.75;124720;1105;104382;-82
2023/11/14 08:22:33;;;;;;;20.37;8.07;;;;;;;8.40;89.34;99906.98;124577;1105;103028;-79
2023/11/14 08:25:09;;;;;;;18.10;8.60;;;;;;;8.44;89.18;99895.81;124656;1105;102329;-77
2023/11/14 08:27:51;;;;;;;19.67;8.60;;;;;;;8.42;89.31;99894.84;124732;1105;103262;-80
2023/11/14 08:30:36;;;;;;;21.80;9.30;;;;;;;8.43;89.02;99893.98;125258;1105;104349;-82
2023/11/14 08:33:21;;;;;;;20.90;8.53;;;;;;;8.39;88.66;99887.77;125386;1105;102498;-80
2023/11/14 08:36:05;;;;;;;20.95;8.03;;;;;;;8.35;89.00;99879.77;124676;1105;104063;-80
2023/11/14 08:38:43;;;;;;;19.30;8.07;;;;;;;8.32;88.26;99879.66;124677;1105;102195;-80
2023/11/14 08:41:19;;;;;;;15.77;7.70;;;;;;;8.31;88.80;99877.91;124773;1105;102296;-83
2023/11/14 08:43:53;;;;;;;19.93;8.07;;;;;;;8.28;89.04;99868.22;125317;1105;102477;-79
2023/11/14 08:46:28;;;;;;;17.80;8.03;;;;;;;8.22;88.44;99855.81;124614;1105;104217;-79
2023/11/14 08:49:07;;;;;;;16.77;7.90;;;;;;;8.13;88.56;99828.48;124734;1105;102394;-79
2023/11/14 08:51:46;;;;;;;20.83;8.47;;;;;;;8.19;88.64;99826.08;125760;1105;110055;-80
2023/11/14 08:54:24;;;;;;;21.10;8.80;;;;;;;8.21;88.30;99850.53;125715;1105;102756;-79
2023/11/14 08:57:01;;;;;;;19.47;8.73;;;;;;;8.19;88.16;99845.25;125944;1105;102635;-79
2023/11/14 08:59:35;;;;;;;24.47;9.17;;;;;;;8.17;88.48;99862.62;124584;1105;104353;-78
2023/11/14 09:02:14;;;;;;;21.30;9.55;;;;;;;8.15;89.32;99869.53;124579;1105;102393;-79
2023/11/14 09:04:48;;;;;;;18.70;8.80;;;;;;;8.11;88.91;99878.08;124946;1105;103424;-78
2023/11/14 09:07:26;;;;;;;20.87;8.63;;;;;;;8.06;88.56;99863.97;124702;1105;103189;-80
2023/11/14 09:10:09;;;;;;;22.27;8.77;;;;;;;8.03;88.58;99859.52;124737;1105;103471;-79
2023/11/14 09:12:44;;;;;;;20.10;8.67;;;;;;;8.03;88.60;99856.91;124908;1105;104293;-78
2023/11/14 09:15:21;;;;;;;21.40;8.90;;;;;;;8.01;88.79;99845.52;124712;1105;103147;-79
2023/11/14 09:17:59;;;;;;;17.80;8.97;;;;;;;8.04;89.03;99832.56;124776;1105;103569;-80
2023/11/14 09:20:38;;;;;;;19.07;8.73;;;;;;;8.09;89.15;99815.31;124747;1105;103097;-77
2023/11/14 09:23:12;;;;;;;19.97;8.77;;;;;;;8.17;88.58;99799.89;124588;1105;102966;-78
2023/11/14 09:25:49;;;;;;;18.90;8.60;;;;;;;8.24;88.82;99786.21;124624;1105;102006;-80
2023/11/14 09:28:24;;;;;;;21.70;8.93;;;;;;;8.31;88.97;99774.22;124755;1105;104169;-77
2023/11/14 09:30:57;;;;;;;21.43;9.80;;;;;;;8.39;89.07;99769.25;124356;1106;104136;-77
2023/11/14 09:33:33;;;;;;;21.55;9.85;;;;;;;8.44;89.28;99771.19;124583;1105;104217;-78
2023/11/14 09:36:11;;;;;;;20.45;10.50;;;;;;;8.45;88.67;99775.59;124445;1105;102171;-78
2023/11/14 09:38:45;;;;;;;20.97;9.73;;;;;;;8.48;88.68;99764.36;125868;1104;102141;-80
2023/11/14 09:41:22;;;;;;;21.65;10.03;;;;;;;8.49;88.80;99753.03;124538;1105;104117;-80
2023/11/14 09:44:00;;;;;;;23.67;10.23;;;;;;;8.48;89.41;99738.20;124557;1105;102498;-77
2023/11/14 09:46:36;;;;;;;21.13;10.20;;;;;;;8.60;89.85;99748.15;124715;1105;104513;-77
2023/11/14 09:49:10;;;;;;;23.23;10.97;;;;;;;8.82;89.21;99731.42;124528;1105;104309;-78
2023/11/14 09:51:48;;;;;;;22.90;10.68;;;;;;;8.99;89.64;99709.25;124556;1105;104236;-77
2023/11/14 09:54:23;;;;;;;22.97;10.50;;;;;;;9.10;89.21;99688.63;124622;1105;102704;-79
2023/11/14 09:57:04;;;;;;;19.97;9.87;;;;;;;9.17;89.07;99690.56;124903;1105;104242;-78
2023/11/14 09:59:42;;;;;;;22.10;9.77;;;;;;;9.30;89.30;99690.91;124953;1105;104219;-76
2023/11/14 10:02:16;;;;;;;20.73;10.37;;;;;;;9.46;89.29;99698.35;124716;1105;102236;-76
2023/11/14 10:05:00;;;;;;;22.82;10.48;;;;;;;9.58;89.23;99687.30;125009;1105;102591;-78
2023/11/14 10:07:40;;;;;;;20.17;8.93;;;;;;;9.62;89.51;99691.78;124878;1106;102601;-78
2023/11/14 10:10:20;;;;;;;21.80;9.50;;;;;;;9.66;89.08;99670.08;124643;1105;102081;-76
2023/11/14 10:12:55;;;;;;;17.80;8.47;;;;;;;9.73;89.44;99671.11;124808;1106;103059;-77
2023/11/14 10:15:34;;;;;;;19.40;8.87;;;;;;;9.75;89.36;99679.01;124788;1105;102193;-79
2023/11/14 10:18:12;;;;;;;21.37;9.60;;;;;;;9.79;89.11;99681.75;124695;1105;102839;-75
2023/11/14 10:20:47;;;;;;;23.57;9.70;;;;;;;9.85;89.20;99676.66;124927;1106;102153;-76
2023/11/14 10:23:36;;;;;;;17.13;8.70;;;;;;;9.86;89.12;99672.30;124751;1106;110530;-78
2023/11/14 10:26:11;;;;;;;20.90;9.23;;;;;;;9.82;88.84;99676.59;125012;1105;103603;-77
2023/11/14 10:29:01;;;;;;;18.15;8.35;;;;;;;9.80;89.32;99688.77;124812;1105;102591;-79
2023/11/14 10:31:42;;;;;;;18.13;8.27;;;;;;;9.78;88.77;99692.19;124638;1105;104202;-77
2023/11/14 10:34:29;;;;;;;21.53;9.27;;;;;;;9.77;89.28;99698.27;124688;1105;103114;-76
2023/11/14 10:37:07;;;;;;;17.33;8.50;;;;;;;9.76;89.49;99697.39;124585;1105;102072;-79
2023/11/14 10:39:54;;;;;;;18.10;8.63;;;;;;;9.83;89.02;99698.42;124992;1105;102334;-77
2023/11/14 10:42:30;;;;;;;18.90;8.83;;;;;;;9.89;88.56;99693.34;124933;1105;103020;-75
2023/11/14 10:45:07;;;;;;;21.67;8.33;;;;;;;9.96;89.15;99692.66;125017;1105;104172;-76
2023/11/14 10:48:03;;;;;;;18.27;8.40;;;;;;;9.98;89.13;99688.33;124993;1105;104363;-75
2023/11/14 10:50:43;;;;;;;20.40;8.60;;;;;;;9.99;88.97;99707.59;124553;1105;103941;-77
2023/11/14 10:53:30;;;;;;;18.10;8.07;;;;;;;9.97;88.91;99698.78;124708;1105;102867;-79
2023/11/14 10:56:08;;;;;;;19.90;8.60;;;;;;;9.93;88.50;99687.34;124874;1105;102942;-79
2023/11/14 10:58:43;;;;;;;18.77;8.20;;;;;;;9.90;88.18;99690.76;124934;1105;104359;-78
2023/11/14 11:01:23;;;;;;;17.53;7.90;;;;;;;9.93;88.60;99681.22;124706;1106;104229;-78
2023/11/14 11:04:00;;;;;;;19.40;8.90;;;;;;;9.94;88.81;99675.11;125082;1105;102611;-77
2023/11/14 11:06:35;;;;;;;17.80;8.70;;;;;;;9.96;88.34;99673.44;125025;1104;104179;-77
2023/11/14 11:09:24;;;;;;;17.50;8.10;;;;;;;9.99;88.17;99647.30;124789;1105;104192;-75
2023/11/14 11:12:02;;;;;;;17.73;8.23;;;;;;;10.03;88.25;99644.77;124727;1106;102304;-76
2023/11/14 11:14:44;;;;;;;22.23;8.90;;;;;;;10.10;88.01;99644.91;124997;1105;102882;-76
2023/11/14 11:17:42;;;;;;;20.00;8.20;;;;;;;10.15;87.94;99646.80;124795;1105;104185;-76
2023/11/14 11:20:34;;;;;;;19.97;8.20;;;;;;;10.23;88.11;99652.23;124773;1106;104258;-81
2023/11/14 11:23:16;;;;;;;16.52;7.90;;;;;;;10.30;88.59;99668.98;124558;1105;102876;-76
2023/11/14 11:33:56;;;;;;;16.60;7.33;;;;;;;10.40;87.87;99661.41;124841;1105;102444;-77
2023/11/14 11:36:35;;;;;;;15.90;7.93;;;;;;;10.46;88.15;99644.93;124884;1106;104220;-79
2023/11/14 11:39:10;;;;;;;17.43;8.00;;;;;;;10.56;88.41;99632.89;124976;1105;102082;-78
2023/11/14 11:42:01;;;;;;;17.05;7.70;;;;;;;10.67;88.06;99614.77;125110;1105;102630;-79
2023/11/14 11:44:42;;;;;;;15.33;7.43;;;;;;;10.77;87.58;99598.38;124961;1105;103882;-77
2023/11/14 11:47:36;;;;;;;18.40;8.17;;;;;;;10.85;87.45;99596.77;124780;1105;103610;-77